createdAt,value
2023-05-09T00:02:17.840Z,10.73
2023-05-09T00:04:45.615Z,10.65
2023-05-09T00:07:12.854Z,10.49
2023-05-09T00:09:41.607Z,10.63
2023-05-09T00:12:09.184Z,10.70
2023-05-09T00:14:37.097Z,10.80
2023-05-09T00:17:03.966Z,10.82
2023-05-09T00:19:31.583Z,10.70
2023-05-09T00:21:58.695Z,10.87
2023-05-09T00:24:26.001Z,10.84
2023-05-09T00:26:54.368Z,10.85
2023-05-09T00:29:21.645Z,10.69
2023-05-09T00:31:48.555Z,10.61
2023-05-09T00:34:17.302Z,10.84
2023-05-09T00:36:44.436Z,10.66
2023-05-09T00:39:12.579Z,10.79
2023-05-09T00:41:39.586Z,10.69
2023-05-09T00:44:08.461Z,10.75
2023-05-09T00:46:35.901Z,10.72
2023-05-09T00:49:04.465Z,10.73
2023-05-09T00:51:32.697Z,10.58
2023-05-09T00:54:00.330Z,10.68
2023-05-09T00:56:27.506Z,10.41
2023-05-09T00:58:55.755Z,10.66
2023-05-09T01:01:24.554Z,10.61
2023-05-09T01:03:52.262Z,10.54
2023-05-09T01:06:29.051Z,10.11
2023-05-09T01:09:02.725Z,10.50
2023-05-09T01:11:37.981Z,10.57
2023-05-09T01:14:12.586Z,10.29
2023-05-09T01:16:46.304Z,10.32
2023-05-09T01:19:34.064Z,10.40
2023-05-09T01:22:04.283Z,10.16
2023-05-09T01:24:49.949Z,10.39
2023-05-09T01:27:28.809Z,10.42
2023-05-09T01:29:59.631Z,10.35
2023-05-09T01:32:30.560Z,10.21
2023-05-09T01:35:02.902Z,10.35
2023-05-09T01:37:33.048Z,10.34
2023-05-09T01:40:07.029Z,10.34
2023-05-09T01:42:41.376Z,10.36
2023-05-09T01:45:12.628Z,10.40
2023-05-09T01:47:41.874Z,10.32
2023-05-09T01:50:11.739Z,10.41
2023-05-09T01:52:41.830Z,10.28
2023-05-09T01:55:12.554Z,9.92
2023-05-09T01:57:40.547Z,10.23
2023-05-09T02:00:13.294Z,10.27
2023-05-09T02:02:41.542Z,10.08
2023-05-09T02:05:10.690Z,10.36
2023-05-09T02:07:39.701Z,10.37
2023-05-09T02:10:09.046Z,10.37
2023-05-09T02:12:36.163Z,10.24
2023-05-09T02:15:04.015Z,10.36
2023-05-09T02:17:32.480Z,10.35
2023-05-09T02:19:59.970Z,10.15
2023-05-09T02:22:27.434Z,10.30
2023-05-09T02:24:54.887Z,10.29
2023-05-09T02:27:22.579Z,10.23
2023-05-09T02:29:55.135Z,9.90
2023-05-09T02:32:25.752Z,10.07
2023-05-09T02:34:59.063Z,9.79
2023-05-09T02:37:31.344Z,9.76
2023-05-09T02:39:58.725Z,9.34
2023-05-09T02:42:29.197Z,9.73
2023-05-09T02:45:01.035Z,9.60
2023-05-09T02:47:28.005Z,9.56
2023-05-09T02:49:56.728Z,9.37
2023-05-09T02:52:23.647Z,9.40
2023-05-09T02:54:51.073Z,9.32
2023-05-09T02:57:18.094Z,9.29
2023-05-09T02:59:47.088Z,9.27
2023-05-09T03:02:14.233Z,8.99
2023-05-09T03:04:41.997Z,9.24
2023-05-09T03:07:10.487Z,9.12
2023-05-09T03:09:40.424Z,9.25
2023-05-09T03:12:09.723Z,9.30
2023-05-09T03:14:37.024Z,9.31
2023-05-09T03:17:04.025Z,8.94
2023-05-09T03:19:32.362Z,9.19
2023-05-09T03:21:59.431Z,9.04
2023-05-09T03:24:28.519Z,9.05
2023-05-09T03:26:55.603Z,9.06
2023-05-09T03:29:24.554Z,9.04
2023-05-09T03:31:51.973Z,8.98
2023-05-09T03:34:19.245Z,9.08
2023-05-09T03:36:53.676Z,9.09
2023-05-09T03:39:23.967Z,9.13
2023-05-09T03:41:52.303Z,9.08
2023-05-09T03:44:19.589Z,9.16
2023-05-09T03:46:48.453Z,9.40
2023-05-09T03:49:15.869Z,9.41
2023-05-09T03:51:42.967Z,9.41
2023-05-09T03:54:10.517Z,9.54
2023-05-09T03:56:37.604Z,9.58
2023-05-09T03:59:06.467Z,9.59
2023-05-09T04:01:34.040Z,9.41
2023-05-09T04:04:01.512Z,9.73
2023-05-09T04:06:30.117Z,9.51
2023-05-09T04:08:57.570Z,9.90
2023-05-09T04:11:27.012Z,9.98
2023-05-09T04:14:00.045Z,10.12
2023-05-09T04:16:28.586Z,10.27
2023-05-09T04:19:03.589Z,10.36
2023-05-09T04:21:33.797Z,10.30
2023-05-09T04:24:01.368Z,10.77
2023-05-09T04:26:28.323Z,10.99
2023-05-09T04:29:02.529Z,11.09
2023-05-09T04:31:31.777Z,11.39
2023-05-09T04:33:59.177Z,11.43
2023-05-09T04:36:27.731Z,11.51
2023-05-09T04:38:56.228Z,11.78
2023-05-09T04:41:24.156Z,11.91
2023-05-09T04:43:52.438Z,11.73
2023-05-09T04:46:25.887Z,12.25
2023-05-09T04:48:54.619Z,12.35
2023-05-09T04:51:21.632Z,12.73
2023-05-09T04:53:48.992Z,12.61
2023-05-09T04:56:16.036Z,12.55
2023-05-09T04:58:46.572Z,12.43
2023-05-09T05:01:21.992Z,12.43
2023-05-09T05:03:49.519Z,13.05
2023-05-09T05:06:18.186Z,13.00
2023-05-09T05:08:45.592Z,13.18
2023-05-09T05:11:13.729Z,13.30
2023-05-09T05:13:43.734Z,13.01
2023-05-09T05:16:10.944Z,12.94
2023-05-09T05:18:38.660Z,13.00
2023-05-09T05:21:05.682Z,12.94
2023-05-09T05:23:34.567Z,12.85
2023-05-09T05:26:01.532Z,12.39
2023-05-09T05:28:28.893Z,12.51
2023-05-09T05:30:56.408Z,12.78
2023-05-09T05:33:25.628Z,12.73
2023-05-09T05:35:58.855Z,13.53
2023-05-09T05:38:26.607Z,13.27
2023-05-09T05:40:55.149Z,13.53
2023-05-09T05:43:22.884Z,13.56
2023-05-09T05:45:50.218Z,13.64
2023-05-09T05:48:18.442Z,13.91
2023-05-09T05:50:45.610Z,13.82
2023-05-09T05:53:13.703Z,13.46
2023-05-09T05:55:44.282Z,14.06
2023-05-09T05:58:17.637Z,14.17
2023-05-09T06:00:45.064Z,14.31
2023-05-09T06:03:14.646Z,14.96
2023-05-09T06:05:43.124Z,15.43
2023-05-09T06:08:17.036Z,15.27
2023-05-09T06:10:46.911Z,15.49
2023-05-09T06:13:14.560Z,16.01
2023-05-09T06:15:43.936Z,15.83
2023-05-09T06:18:13.555Z,16.60
2023-05-09T06:20:40.962Z,17.04
2023-05-09T06:23:08.386Z,17.07
2023-05-09T06:25:37.153Z,16.21
2023-05-09T06:28:04.837Z,15.84
2023-05-09T06:30:32.025Z,15.81
2023-05-09T06:33:00.899Z,15.06
2023-05-09T06:35:27.952Z,15.55
2023-05-09T06:37:55.295Z,15.01
2023-05-09T06:40:22.515Z,15.71
2023-05-09T06:42:50.055Z,15.35
2023-05-09T06:45:17.483Z,15.22
2023-05-09T06:47:45.248Z,15.13
2023-05-09T06:50:13.908Z,15.56
2023-05-09T06:52:41.482Z,15.43
2023-05-09T06:55:11.301Z,15.63
2023-05-09T06:57:40.607Z,15.33
2023-05-09T07:00:12.484Z,16.07
2023-05-09T07:02:43.400Z,15.28
2023-05-09T07:05:13.953Z,16.41
2023-05-09T07:07:41.397Z,16.56
2023-05-09T07:10:11.843Z,16.54
2023-05-09T07:12:40.235Z,15.93
2023-05-09T07:15:09.294Z,16.29
2023-05-09T07:17:43.216Z,15.74
2023-05-09T07:20:15.062Z,15.96
2023-05-09T07:22:46.724Z,15.73
2023-05-09T07:25:14.015Z,16.35
2023-05-09T07:27:44.697Z,16.58
2023-05-09T07:30:14.899Z,16.19
2023-05-09T07:32:44.849Z,16.30
2023-05-09T07:35:12.064Z,16.68
2023-05-09T07:37:40.618Z,16.96
2023-05-09T07:40:10.356Z,17.01
2023-05-09T07:42:38.417Z,16.79
2023-05-09T07:45:06.627Z,17.14
2023-05-09T07:47:34.129Z,16.84
2023-05-09T07:50:02.633Z,17.31
2023-05-09T07:52:31.479Z,17.37
2023-05-09T07:55:04.168Z,17.38
2023-05-09T07:57:32.937Z,17.14
2023-05-09T08:00:00.115Z,17.20
2023-05-09T08:02:30.021Z,17.19
2023-05-09T08:04:58.297Z,16.90
2023-05-09T08:07:34.604Z,17.20
2023-05-09T08:10:02.712Z,16.73
2023-05-09T08:12:37.392Z,17.14
2023-05-09T08:15:10.908Z,16.64
2023-05-09T08:17:43.613Z,16.49
2023-05-09T08:20:12.062Z,16.64
2023-05-09T08:22:40.300Z,16.32
2023-05-09T08:25:11.004Z,16.15
2023-05-09T08:27:41.022Z,15.75
2023-05-09T08:30:12.124Z,16.03
2023-05-09T08:32:40.679Z,16.17
2023-05-09T08:35:09.133Z,15.07
2023-05-09T08:37:36.559Z,15.38
2023-05-09T08:40:07.870Z,15.86
2023-05-09T08:42:37.191Z,15.59
2023-05-09T08:45:09.716Z,16.11
2023-05-09T08:47:38.108Z,15.75
2023-05-09T08:50:09.938Z,16.50
2023-05-09T08:52:37.455Z,16.57
2023-05-09T08:55:05.463Z,16.71
2023-05-09T08:57:38.306Z,16.63
2023-05-09T09:00:17.889Z,16.48
2023-05-09T09:02:51.264Z,16.69
2023-05-09T09:05:39.948Z,17.49
2023-05-09T09:08:09.241Z,17.48
2023-05-09T09:10:48.427Z,17.47
2023-05-09T09:13:19.142Z,17.95
2023-05-09T09:15:51.208Z,17.76
2023-05-09T09:18:22.676Z,17.95
2023-05-09T09:20:58.923Z,18.07
2023-05-09T09:23:27.763Z,17.99
2023-05-09T09:25:59.711Z,17.90
2023-05-09T09:28:28.118Z,17.95
2023-05-09T09:30:56.916Z,18.47
2023-05-09T09:33:25.172Z,18.68
2023-05-09T09:35:56.536Z,18.89
2023-05-09T09:38:25.668Z,18.61
2023-05-09T09:40:56.334Z,18.65
2023-05-09T09:43:30.959Z,19.13
2023-05-09T09:46:04.956Z,19.47
2023-05-09T09:48:34.002Z,19.13
2023-05-09T09:51:09.598Z,19.12
2023-05-09T09:53:42.390Z,19.22
2023-05-09T09:56:14.685Z,19.34
2023-05-09T09:58:42.543Z,19.09
2023-05-09T10:01:17.028Z,18.68
2023-05-09T10:03:48.119Z,18.76
2023-05-09T10:06:17.776Z,18.96
2023-05-09T10:08:53.132Z,19.16
2023-05-09T10:11:21.728Z,19.39
2023-05-09T10:13:52.656Z,19.59
2023-05-09T10:16:42.521Z,19.44
2023-05-09T10:19:18.249Z,19.33
2023-05-09T10:21:49.702Z,19.11
2023-05-09T10:24:22.896Z,18.80
2023-05-09T10:26:53.050Z,19.00
2023-05-09T10:29:25.423Z,18.90
2023-05-09T10:31:59.941Z,18.80
2023-05-09T10:34:32.841Z,18.83
2023-05-09T10:37:00.793Z,19.40
2023-05-09T10:39:30.673Z,19.49
2023-05-09T10:42:05.146Z,19.43
2023-05-09T10:44:33.255Z,19.60
2023-05-09T10:47:02.826Z,19.73
2023-05-09T10:49:30.893Z,19.12
2023-05-09T10:51:58.223Z,19.37
2023-05-09T10:54:30.935Z,19.45
2023-05-09T10:56:58.532Z,19.48
2023-05-09T11:03:19.792Z,19.50
2023-05-09T11:05:48.839Z,19.32
2023-05-09T11:08:19.552Z,19.34
2023-05-09T11:10:47.809Z,19.42
2023-05-09T11:13:19.722Z,18.93
2023-05-09T11:16:03.448Z,19.36
2023-05-09T11:18:35.785Z,19.33
2023-05-09T11:21:08.757Z,19.37
2023-05-09T11:23:39.077Z,19.06
2023-05-09T11:26:07.907Z,19.80
2023-05-09T11:28:36.667Z,19.95
2023-05-09T11:31:14.349Z,19.22
2023-05-09T11:33:49.171Z,20.02
2023-05-09T11:36:25.205Z,19.72
2023-05-09T11:39:16.314Z,20.02
2023-05-09T11:41:47.140Z,19.47
2023-05-09T11:44:18.556Z,19.79
2023-05-09T11:46:47.265Z,20.17
2023-05-09T11:49:20.509Z,20.52
2023-05-09T11:51:52.302Z,20.73
2023-05-09T11:54:19.621Z,20.42
2023-05-09T11:56:49.402Z,20.26
2023-05-09T11:59:21.241Z,20.09
2023-05-09T12:01:54.653Z,20.23
2023-05-09T12:04:23.228Z,19.56
2023-05-09T12:06:57.465Z,19.95
2023-05-09T12:09:25.931Z,19.91
2023-05-09T12:11:53.226Z,19.96
2023-05-09T12:14:32.529Z,19.47
2023-05-09T12:17:00.111Z,19.60
2023-05-09T12:19:30.722Z,19.68
2023-05-09T12:22:03.984Z,19.37
2023-05-09T12:24:32.281Z,19.37
2023-05-09T12:27:01.337Z,19.73
2023-05-09T12:29:35.786Z,19.86
2023-05-09T12:32:05.880Z,19.76
2023-05-09T12:34:38.494Z,19.68
2023-05-09T12:37:16.230Z,19.79
2023-05-09T12:40:00.871Z,19.81
2023-05-09T12:42:29.177Z,20.52
2023-05-09T12:45:00.346Z,20.59
2023-05-09T12:47:29.798Z,21.08
2023-05-09T12:50:13.730Z,20.47
2023-05-09T12:53:02.835Z,20.75
2023-05-09T12:55:32.783Z,20.05
2023-05-09T12:58:03.506Z,20.22
2023-05-09T13:00:42.566Z,20.18
2023-05-09T13:03:21.379Z,19.97
2023-05-09T13:05:57.352Z,19.56
2023-05-09T13:08:25.356Z,19.96
2023-05-09T13:10:57.869Z,19.41
2023-05-09T13:13:34.379Z,18.96
2023-05-09T13:16:04.799Z,19.42
2023-05-09T13:18:34.072Z,18.82
2023-05-09T13:21:02.524Z,18.66
2023-05-09T13:23:29.992Z,17.98
2023-05-09T13:25:57.070Z,18.31
2023-05-09T13:28:24.340Z,18.60
2023-05-09T13:30:51.328Z,18.07
2023-05-09T13:35:51.374Z,18.40
2023-05-09T13:38:20.271Z,18.29
2023-05-09T13:40:50.196Z,18.03
2023-05-09T13:43:17.597Z,17.98
2023-05-09T13:45:44.797Z,18.27
2023-05-09T13:48:12.350Z,18.16
2023-05-09T13:50:39.513Z,17.93
2023-05-09T13:53:06.800Z,17.91
2023-05-09T13:55:38.307Z,17.26
2023-05-09T13:58:07.801Z,17.60
2023-05-09T14:00:36.753Z,17.11
2023-05-09T14:03:07.589Z,17.53
2023-05-09T14:05:34.716Z,17.41
2023-05-09T14:08:02.016Z,17.37
2023-05-09T14:10:31.706Z,17.03
2023-05-09T14:13:02.456Z,16.92
2023-05-09T14:15:35.505Z,17.00
2023-05-09T14:18:03.879Z,16.77
2023-05-09T14:23:19.892Z,16.50
2023-05-09T14:25:47.035Z,16.59
2023-05-09T14:28:17.764Z,16.50
2023-05-09T14:30:48.566Z,16.41
2023-05-09T14:33:16.199Z,16.52
2023-05-09T14:35:44.302Z,16.54
2023-05-09T14:38:13.250Z,16.45
2023-05-09T14:40:42.921Z,16.43
2023-05-09T14:43:13.224Z,15.81
2023-05-09T14:45:44.383Z,16.08
2023-05-09T14:48:15.859Z,16.42
2023-05-09T14:50:43.944Z,16.41
2023-05-09T14:53:13.300Z,16.52
2023-05-09T14:55:42.587Z,16.44
2023-05-09T14:58:09.862Z,16.46
2023-05-09T15:00:37.070Z,16.65
2023-05-09T15:03:08.178Z,16.77
2023-05-09T15:05:38.984Z,16.74
2023-05-09T15:08:08.920Z,16.72
2023-05-09T15:10:35.949Z,16.97
2023-05-09T15:13:08.525Z,16.98
2023-05-09T15:15:38.318Z,17.00
2023-05-09T15:18:12.354Z,17.01
2023-05-09T15:20:39.967Z,16.90
2023-05-09T15:23:08.023Z,16.87
2023-05-09T15:25:36.579Z,16.95
2023-05-09T15:28:04.393Z,16.89
2023-05-09T15:30:31.655Z,16.86
2023-05-09T15:33:01.964Z,16.33
2023-05-09T15:35:31.486Z,16.75
2023-05-09T15:38:04.214Z,16.44
2023-05-09T15:40:39.794Z,16.55
2023-05-09T15:43:09.515Z,16.98
2023-05-09T15:45:45.470Z,16.57
2023-05-09T15:48:15.084Z,16.82
2023-05-09T15:50:45.959Z,17.16
2023-05-09T15:53:18.123Z,17.17
2023-05-09T15:55:48.623Z,16.97
2023-05-09T15:58:24.536Z,16.73
2023-05-09T16:00:51.974Z,16.83
2023-05-09T16:03:22.923Z,17.30
2023-05-09T16:05:53.073Z,16.81
2023-05-09T16:08:21.499Z,16.88
2023-05-09T16:10:50.560Z,17.32
2023-05-09T16:13:20.577Z,17.43
2023-05-09T16:15:59.406Z,17.36
2023-05-09T16:18:31.017Z,16.73
2023-05-09T16:21:03.264Z,16.97
2023-05-09T16:23:36.604Z,17.30
2023-05-09T16:26:04.482Z,17.10
2023-05-09T16:28:33.750Z,16.88
2023-05-09T16:31:05.041Z,17.01
2023-05-09T16:33:44.394Z,17.24
2023-05-09T16:36:22.750Z,16.92
2023-05-09T16:39:01.360Z,16.64
2023-05-09T16:41:37.971Z,16.48
2023-05-09T16:44:06.736Z,16.99
2023-05-09T16:46:43.856Z,16.61
2023-05-09T16:49:14.149Z,16.93
2023-05-09T16:51:51.360Z,16.31
2023-05-09T16:54:22.000Z,16.57
2023-05-09T16:56:51.594Z,16.35
2023-05-09T16:59:22.030Z,16.21
2023-05-09T17:02:08.618Z,16.83
2023-05-09T17:04:49.812Z,16.83
2023-05-09T17:07:20.218Z,16.40
2023-05-09T17:09:49.959Z,16.38
2023-05-09T17:12:19.395Z,16.10
2023-05-09T17:14:51.412Z,16.52
2023-05-09T17:17:19.373Z,15.95
2023-05-09T17:19:48.508Z,15.90
2023-05-09T17:22:17.739Z,16.30
2023-05-09T17:24:47.251Z,16.15
2023-05-09T17:27:17.016Z,15.92
2023-05-09T17:29:44.445Z,15.02
2023-05-09T17:32:11.542Z,15.57
2023-05-09T17:34:39.335Z,15.49
2023-05-09T17:37:07.310Z,15.78
2023-05-09T17:39:34.969Z,15.37
2023-05-09T17:42:03.738Z,15.20
2023-05-09T17:44:36.454Z,15.28
2023-05-09T17:47:03.735Z,15.13
2023-05-09T17:49:37.475Z,15.76
2023-05-09T17:52:05.473Z,15.16
2023-05-09T17:54:42.184Z,15.29
2023-05-09T17:57:12.604Z,15.48
2023-05-09T17:59:52.006Z,15.62
2023-05-09T18:02:26.789Z,15.00
2023-05-09T18:04:55.080Z,15.23
2023-05-09T18:07:23.452Z,15.25
2023-05-09T18:09:52.252Z,14.47
2023-05-09T18:12:36.323Z,14.52
2023-05-09T18:15:10.335Z,14.29
2023-05-09T18:17:37.987Z,14.52
2023-05-09T18:20:11.296Z,14.54
2023-05-09T18:22:43.927Z,14.55
2023-05-09T18:25:14.488Z,14.33
2023-05-09T18:27:43.762Z,14.28
2023-05-09T18:30:16.686Z,14.29
2023-05-09T18:32:45.249Z,14.61
2023-05-09T18:35:12.930Z,14.70
2023-05-09T18:37:43.121Z,14.42
2023-05-09T18:40:18.719Z,14.48
2023-05-09T18:42:51.841Z,14.42
2023-05-09T18:45:22.434Z,13.96
2023-05-09T18:47:50.186Z,13.91
2023-05-09T18:50:19.243Z,14.23
2023-05-09T18:52:46.539Z,14.24
2023-05-09T18:55:16.631Z,14.22
2023-05-09T18:57:45.260Z,13.66
2023-05-09T19:00:16.257Z,14.07
2023-05-09T19:02:44.424Z,13.52
2023-05-09T19:05:12.522Z,13.55
2023-05-09T19:07:47.790Z,13.73
2023-05-09T19:13:16.050Z,13.76
2023-05-09T19:16:07.706Z,13.90
2023-05-09T19:18:38.628Z,13.45
2023-05-09T19:21:06.838Z,13.84
2023-05-09T19:23:41.600Z,13.37
2023-05-09T19:26:09.905Z,13.34
2023-05-09T19:29:12.543Z,13.87
2023-05-09T19:31:43.876Z,13.34
2023-05-09T19:34:14.687Z,13.21
2023-05-09T19:36:46.367Z,13.55
2023-05-09T19:39:17.664Z,13.59
2023-05-09T19:41:48.991Z,13.06
2023-05-09T19:44:19.143Z,13.40
2023-05-09T19:46:51.213Z,13.34
2023-05-09T19:49:26.655Z,12.82
2023-05-09T19:52:17.584Z,13.23
2023-05-09T19:54:54.444Z,12.74
2023-05-09T19:57:34.926Z,12.59
2023-05-09T20:02:50.527Z,13.13
2023-05-09T20:05:17.868Z,12.75
2023-05-09T20:08:00.740Z,12.36
2023-05-09T20:10:48.926Z,13.31
2023-05-09T20:13:22.422Z,12.63
2023-05-09T20:15:54.669Z,12.78
2023-05-09T20:18:28.055Z,12.67
2023-05-09T20:20:56.646Z,12.71
2023-05-09T20:23:30.085Z,12.44
2023-05-09T20:26:00.244Z,12.60
2023-05-09T20:28:30.285Z,12.44
2023-05-09T20:31:05.143Z,13.04
2023-05-09T20:33:38.103Z,12.81
2023-05-09T20:36:12.634Z,12.44
2023-05-09T20:38:53.332Z,12.48
2023-05-09T20:41:27.886Z,12.45
2023-05-09T20:44:20.057Z,12.94
2023-05-09T20:46:53.943Z,12.14
2023-05-09T20:49:34.074Z,12.40
2023-05-09T20:52:09.707Z,12.42
2023-05-09T20:58:14.909Z,12.04
2023-05-09T21:01:14.081Z,12.74
2023-05-09T21:03:57.333Z,12.62
2023-05-09T21:06:57.944Z,11.91
2023-05-09T21:09:33.281Z,12.16
2023-05-09T21:12:12.454Z,11.92
2023-05-09T21:14:41.924Z,12.05
2023-05-09T21:17:10.650Z,12.52
2023-05-09T21:19:45.504Z,11.85
2023-05-09T21:22:17.287Z,12.18
2023-05-09T21:24:48.959Z,12.23
2023-05-09T21:27:18.493Z,11.93
2023-05-09T21:29:52.268Z,11.80
2023-05-09T21:32:19.644Z,12.36
2023-05-09T21:34:51.474Z,11.70
2023-05-09T21:37:21.675Z,12.26
2023-05-09T21:39:58.128Z,12.19
2023-05-09T21:42:38.009Z,11.86
2023-05-09T21:45:09.389Z,11.61
2023-05-09T21:47:40.222Z,11.48
2023-05-09T21:50:10.418Z,11.98
2023-05-09T21:52:39.139Z,11.95
2023-05-09T21:55:09.257Z,11.81
2023-05-09T21:57:36.329Z,11.85
2023-05-09T22:00:16.760Z,11.70
2023-05-09T22:02:47.948Z,10.92
2023-05-09T22:05:24.933Z,11.29
2023-05-09T22:08:00.464Z,10.96
2023-05-09T22:10:47.616Z,10.99
2023-05-09T22:13:21.151Z,11.03
2023-05-09T22:15:54.341Z,10.92
2023-05-09T22:18:28.464Z,11.50
2023-05-09T22:20:59.059Z,11.00
2023-05-09T22:23:44.116Z,11.54
2023-05-09T22:26:17.379Z,11.04
2023-05-09T22:28:57.609Z,10.63
2023-05-09T22:31:41.570Z,11.48
2023-05-09T22:34:12.653Z,11.21
2023-05-09T22:36:42.027Z,10.80
2023-05-09T22:39:14.591Z,10.90
2023-05-09T22:41:44.171Z,11.13
2023-05-09T22:44:12.113Z,10.78
2023-05-09T22:46:48.099Z,10.78
2023-05-09T22:49:19.529Z,11.29
2023-05-09T22:51:49.625Z,10.71
2023-05-09T22:54:21.682Z,10.68
2023-05-09T22:56:49.948Z,10.65
2023-05-09T22:59:19.233Z,10.64
2023-05-09T23:01:53.772Z,10.57
2023-05-09T23:04:22.155Z,10.40
2023-05-09T23:06:49.550Z,10.57
2023-05-09T23:09:18.465Z,10.20
2023-05-09T23:11:47.432Z,11.11
2023-05-09T23:14:18.810Z,11.12
2023-05-09T23:16:48.557Z,10.64
2023-05-09T23:19:17.359Z,11.12
2023-05-09T23:21:47.507Z,10.86
2023-05-09T23:24:16.245Z,10.55
2023-05-09T23:26:45.252Z,10.79
2023-05-09T23:29:13.777Z,10.87
2023-05-09T23:31:43.362Z,10.80
2023-05-09T23:34:12.392Z,10.47
2023-05-09T23:36:39.645Z,10.50
2023-05-09T23:39:07.223Z,10.96
2023-05-09T23:41:35.597Z,10.72
2023-05-09T23:44:04.750Z,10.69
2023-05-09T23:46:32.598Z,10.62
2023-05-09T23:49:00.429Z,10.25
2023-05-09T23:51:28.805Z,10.32
2023-05-09T23:54:04.140Z,10.30
2023-05-09T23:56:32.994Z,10.47
2023-05-09T23:59:09.930Z,10.84
